Kennicott — WCY2920 — position and weather

sailwx.info

Track history (hours):
 
Tides and Currents Weather Stations Pressure Air Temp Water Temp Dewpoint Dewpoint Depression Visibility Wind Speed Wind Dir Waves Ship Positions

Kennicott

Owner: ALASKA, STATE OF, Anchorage, AK. More information available from US FCC via Universal Licensing System and Coast Guard Vessel Documentation Center.

Last reported at 2019-Apr-24 11:06 UTC. Time now 2019-Apr-24 22:26 UTC.
Position N 59°13' W 139°24'.

Type: Passenger vessel. MMSI: 368250000.

Date/timePositionNaut miles runAvg speedWind from/ knotsBaromVisibWave heightAir tempDewpointWater temp
2019-Apr-24 11:06N 59°13' W 139°24'313.6
2019-Apr-24 10:53N 59°12' W 139°20'10313.3
2019-Apr-24 03:10N 58°10' W 136°41'212.7
2019-Apr-24 03:00N 58°10' W 136°37'1010.8
2019-Apr-24 02:03N 58°17' W 136°23'111.8
2019-Apr-24 01:58N 58°17' W 136°21'510.8
2019-Apr-24 01:30N 58°19' W 136°12'510.9
2019-Apr-24 01:01N 58°20' W 136°02'612.1
2019-Apr-24 00:30N 58°19' W 135°51'611.1
2019-Apr-24 00:00N 58°17' W 135°40'611.4
2019-Apr-23 23:29N 58°15' W 135°30'252 7.4
2019-Apr-22 13:27N 54°52' W 131°01'715.3
2019-Apr-22 13:00N 54°46' W 130°56'815.9
2019-Apr-22 12:30N 54°40' W 130°47'815.3
2019-Apr-22 12:00N 54°34' W 130°39'815.9
2019-Apr-22 11:30N 54°26' W 130°37'816.4
2019-Apr-22 11:00N 54°18' W 130°35'816.6
2019-Apr-22 10:30N 54°11' W 130°27'714.3
2019-Apr-22 10:00N 54°05' W 130°20'815.7
2019-Apr-22 09:31N 53°59' W 130°12'714.6
2019-Apr-22 09:00N 53°53' W 130°05'816.4
2019-Apr-22 08:30N 53°47' W 129°56'9614.6
2019-Apr-22 01:55N 52°25' W 128°29'615.0
2019-Apr-22 01:30N 52°19' W 128°32'611.7
2019-Apr-22 01:00N 52°16' W 128°25'816.1
2019-Apr-22 00:30N 52°14' W 128°12'5 9.7
2019-Apr-22 00:00N 52°10' W 128°08'612.0
2019-Apr-21 23:30N 52°05' W 128°03'612.7
2019-Apr-21 23:01N 52°00' W 127°56'816.9
2019-Apr-21 22:31N 51°52' W 127°56'817.0
2019-Apr-21 22:01N 51°43' W 127°55'917.4
2019-Apr-21 21:31N 51°35' W 127°52'917.1
2019-Apr-21 21:00N 51°26' W 127°51'816.8
2019-Apr-21 20:31N 51°18' W 127°52'816.3
2019-Apr-21 20:01N 51°10' W 127°50'816.4
2019-Apr-21 19:30N 51°04' W 127°41'815.9
2019-Apr-21 19:01N 50°58' W 127°32'816.3
2019-Apr-21 18:31N 50°54' W 127°22'916.9
2019-Apr-21 18:00N 50°49' W 127°10'917.3
2019-Apr-21 17:30N 50°44' W 126°59'916.8
2019-Apr-21 16:59N 50°39' W 126°48'917.6
2019-Apr-21 16:29N 50°32' W 126°39'917.9
2019-Apr-21 16:01N 50°30' W 126°26'1117.8
2019-Apr-21 15:25N 50°28' W 126°10'1617.8
2019-Apr-21 14:32N 50°23' W 125°47'119.6
2019-Apr-21 14:30N 50°22' W 125°46'1217.4
2019-Apr-21 13:48N 50°20' W 125°27'415.2
2019-Apr-21 13:31N 50°16' W 125°24'816.1
2019-Apr-21 13:00N 50°09' W 125°21'510.0
2019-Apr-21 12:31N 50°05' W 125°16'4 7.3
2019-Apr-21 12:00N 50°02' W 125°13'5 9.0
2019-Apr-21 11:30N 49°58' W 125°09'612.2
2019-Apr-21 10:59N 49°54' W 125°02'612.8
2019-Apr-21 10:30N 49°49' W 124°56'612.4
2019-Apr-21 10:00N 49°45' W 124°49'612.4
2019-Apr-21 09:30N 49°40' W 124°42'612.5
2019-Apr-21 09:00N 49°36' W 124°35'712.8
2019-Apr-21 08:29N 49°31' W 124°28'613.4
2019-Apr-21 08:00N 49°27' W 124°21'713.2
2019-Apr-21 07:30N 49°24' W 124°11'713.1
2019-Apr-21 07:01N 49°23' W 124°02'713.2
2019-Apr-21 06:30N 49°21' W 123°52'612.8
2019-Apr-21 06:01N 49°18' W 123°43'713.0
2019-Apr-21 05:30N 49°13' W 123°36'612.7
2019-Apr-21 05:00N 49°09' W 123°29'612.7
2019-Apr-21 04:30N 49°05' W 123°22'613.0
2019-Apr-21 04:01N 49°01' W 123°15'713.4
2019-Apr-21 03:31N 48°56' W 123°07'713.9
2019-Apr-21 03:00N 48°52' W 122°59'714.5
2019-Apr-21 02:30N 48°47' W 122°50'815.5
2019-Apr-21 02:00N 48°41' W 122°43'611.8
2019-Apr-21 01:29N 48°40' W 122°34'4 8.7
2019-Apr-21 01:01N 48°43' W 122°31'0 0.0
2019-Apr-21 00:25N 48°43' W 122°31'0 0.0
2019-Apr-20 23:55N 48°43' W 122°31'0 0.0
2019-Apr-20 23:25N 48°43' W 122°31'0 0.0
2019-Apr-20 22:55N 48°43' W 122°31'0 0.0
2019-Apr-20 22:25N 48°43' W 122°31'0 0.0
2019-Apr-20 21:55N 48°43' W 122°31'0 0.0
2019-Apr-20 21:25N 48°43' W 122°31'0 0.0
2019-Apr-20 20:55N 48°43' W 122°31'0 0.0
2019-Apr-20 20:25N 48°43' W 122°31'0 0.0
2019-Apr-20 19:55N 48°43' W 122°31'0 0.0
2019-Apr-20 19:25N 48°43' W 122°31'0 0.0
2019-Apr-20 18:55N 48°43' W 122°31'0 0.0
2019-Apr-20 18:25N 48°43' W 122°31'0 0.0
2019-Apr-20 17:55N 48°43' W 122°31'0 0.0
2019-Apr-20 17:25N 48°43' W 122°31'0 0.0
2019-Apr-20 16:55N 48°43' W 122°31'0 0.0
2019-Apr-20 16:25N 48°43' W 122°31'0 0.0
2019-Apr-20 15:55N 48°43' W 122°31'0 0.0
2019-Apr-20 15:25N 48°43' W 122°31'0 0.0
2019-Apr-20 14:55N 48°43' W 122°31'1 1.5
2019-Apr-20 14:19N 48°43' W 122°32'1 1.5
2019-Apr-20 13:58N 48°43' W 122°33'1 1.4
2019-Apr-20 13:30N 48°43' W 122°32'1 1.1
2019-Apr-20 13:00N 48°44' W 122°31'5 9.3
2019-Apr-20 12:30N 48°39' W 122°34'510.5
2019-Apr-20 12:00N 48°39' W 122°41'713.0
2019-Apr-20 11:30N 48°45' W 122°47'713.6
2019-Apr-20 11:00N 48°48' W 122°56'713.7
2019-Apr-20 10:30N 48°52' W 123°05'713.3
2019-Apr-20 10:01N 48°56' W 123°12'713.4
2019-Apr-20 09:30N 49°01' W 123°20'713.7
2019-Apr-20 09:00N 49°05' W 123°27'713.8
2019-Apr-20 08:30N 49°10' W 123°35'713.5
2019-Apr-20 08:00N 49°16' W 123°41'713.9
2019-Apr-20 07:31N 49°21' W 123°48'714.4
2019-Apr-20 07:01N 49°23' W 123°59'815.6
2019-Apr-20 06:31N 49°29' W 124°08'815.7
2019-Apr-20 06:00N 49°33' W 124°18'714.6
2019-Apr-20 05:31N 49°35' W 124°28'714.8
2019-Apr-20 05:01N 49°38' W 124°39'714.7
2019-Apr-20 04:30N 49°44' W 124°47'815.2
2019-Apr-20 04:00N 49°49' W 124°55'715.0
2019-Apr-20 03:30N 49°54' W 125°04'714.1
2019-Apr-20 03:01N 49°59' W 125°11'510.0
2019-Apr-20 02:30N 50°04' W 125°15'510.7
2019-Apr-20 02:00N 50°07' W 125°21'612.0
2019-Apr-20 01:30N 50°13' W 125°23'4 8.0
2019-Apr-20 01:00N 50°17' W 125°25'714.7
2019-Apr-20 00:30N 50°22' W 125°34'816.4
2019-Apr-19 23:59N 50°22' W 125°47'1516.9
2019-Apr-19 23:05N 50°28' W 126°09'216.7
2019-Apr-19 22:57N 50°29' W 126°12'816.8
2019-Apr-19 22:29N 50°30' W 126°24'816.5
2019-Apr-19 22:00N 50°31' W 126°37'815.6
2019-Apr-19 21:29N 50°37' W 126°45'917.9
2019-Apr-19 20:58N 50°43' W 126°57'817.3
2019-Apr-19 20:30N 50°48' W 127°06'917.1
2019-Apr-19 20:00N 50°52' W 127°18'917.6
2019-Apr-19 19:30N 50°57' W 127°29'816.0
2019-Apr-19 19:00N 51°03' W 127°39'816.2
2019-Apr-19 18:30N 51°08' W 127°48'816.2
2019-Apr-19 18:01N 51°16' W 127°53'815.7
2019-Apr-19 17:30N 51°23' W 127°58'816.2
2019-Apr-19 17:00N 51°27' W 128°09'815.6
2019-Apr-19 16:30N 51°34' W 128°17'815.8
2019-Apr-19 16:00N 51°40' W 128°24'815.9
2019-Apr-19 15:30N 51°47' W 128°31'815.3
2019-Apr-19 15:00N 51°54' W 128°36'815.4
2019-Apr-19 14:30N 52°01' W 128°40'815.6
2019-Apr-19 14:00N 52°09' W 128°43'815.7
2019-Apr-19 13:30N 52°16' W 128°47'8115.7
2019-Apr-19 08:22N 53°26' W 129°55'915.4
2019-Apr-19 07:48N 53°31' W 130°06'715.1
2019-Apr-19 07:21N 53°35' W 130°16'515.2
2019-Apr-19 07:00N 53°38' W 130°23'815.5
2019-Apr-19 06:30N 53°43' W 130°33'814.9
2019-Apr-19 06:00N 53°48' W 130°42'714.7
2019-Apr-19 05:30N 53°53' W 130°52'714.7
2019-Apr-19 05:00N 53°59' W 130°58'815.9
2019-Apr-19 04:30N 54°07' W 131°00'815.6
2019-Apr-19 04:00N 54°15' W 131°02'815.4
2019-Apr-19 03:30N 54°23' W 131°03'815.6
2019-Apr-19 02:59N 54°31' W 131°02'1115.5
2019-Apr-19 02:17N 54°42' W 131°01'516.1
2019-Apr-19 01:58N 54°47' W 131°03'251 7.7
2019-Apr-17 17:23N 58°13' W 135°21'717.0
2019-Apr-17 17:00N 58°15' W 135°32'917.8
2019-Apr-17 16:31N 58°18' W 135°48'1019.0
2019-Apr-17 16:00N 58°20' W 136°06'917.7
2019-Apr-17 15:30N 58°17' W 136°22'  
Track history (hours):
 
Tides and Currents Weather Stations Pressure Air Temp Water Temp Dewpoint Dewpoint Depression Visibility Wind Speed Wind Dir Waves Ship Positions

Kennicott

Owner: ALASKA, STATE OF, Anchorage, AK. More information available from US FCC via Universal Licensing System and Coast Guard Vessel Documentation Center.

Last reported at 2019-Apr-24 11:06 UTC. Time now 2019-Apr-24 22:26 UTC.
Position N 59°13' W 139°24'.

Type: Passenger vessel. MMSI: 368250000.

Date/timePositionNaut miles runAvg speedWind from/ knotsBaromVisibWave heightAir tempDewpointWater temp
2019-Apr-24 11:06N 59°13' W 139°24'313.6
2019-Apr-24 10:53N 59°12' W 139°20'10313.3
2019-Apr-24 03:10N 58°10' W 136°41'212.7
2019-Apr-24 03:00N 58°10' W 136°37'1010.8
2019-Apr-24 02:03N 58°17' W 136°23'111.8
2019-Apr-24 01:58N 58°17' W 136°21'510.8
2019-Apr-24 01:30N 58°19' W 136°12'510.9
2019-Apr-24 01:01N 58°20' W 136°02'612.1
2019-Apr-24 00:30N 58°19' W 135°51'611.1
2019-Apr-24 00:00N 58°17' W 135°40'611.4
2019-Apr-23 23:29N 58°15' W 135°30'252 7.4
2019-Apr-22 13:27N 54°52' W 131°01'715.3
2019-Apr-22 13:00N 54°46' W 130°56'815.9
2019-Apr-22 12:30N 54°40' W 130°47'815.3
2019-Apr-22 12:00N 54°34' W 130°39'815.9
2019-Apr-22 11:30N 54°26' W 130°37'816.4
2019-Apr-22 11:00N 54°18' W 130°35'816.6
2019-Apr-22 10:30N 54°11' W 130°27'714.3
2019-Apr-22 10:00N 54°05' W 130°20'815.7
2019-Apr-22 09:31N 53°59' W 130°12'714.6
2019-Apr-22 09:00N 53°53' W 130°05'816.4
2019-Apr-22 08:30N 53°47' W 129°56'9614.6
2019-Apr-22 01:55N 52°25' W 128°29'615.0
2019-Apr-22 01:30N 52°19' W 128°32'611.7
2019-Apr-22 01:00N 52°16' W 128°25'816.1
2019-Apr-22 00:30N 52°14' W 128°12'5 9.7
2019-Apr-22 00:00N 52°10' W 128°08'612.0
2019-Apr-21 23:30N 52°05' W 128°03'612.7
2019-Apr-21 23:01N 52°00' W 127°56'816.9
2019-Apr-21 22:31N 51°52' W 127°56'817.0
2019-Apr-21 22:01N 51°43' W 127°55'917.4
2019-Apr-21 21:31N 51°35' W 127°52'917.1
2019-Apr-21 21:00N 51°26' W 127°51'816.8
2019-Apr-21 20:31N 51°18' W 127°52'816.3
2019-Apr-21 20:01N 51°10' W 127°50'816.4
2019-Apr-21 19:30N 51°04' W 127°41'815.9
2019-Apr-21 19:01N 50°58' W 127°32'816.3
2019-Apr-21 18:31N 50°54' W 127°22'916.9
2019-Apr-21 18:00N 50°49' W 127°10'917.3
2019-Apr-21 17:30N 50°44' W 126°59'916.8
2019-Apr-21 16:59N 50°39' W 126°48'917.6
2019-Apr-21 16:29N 50°32' W 126°39'917.9
2019-Apr-21 16:01N 50°30' W 126°26'1117.8
2019-Apr-21 15:25N 50°28' W 126°10'1617.8
2019-Apr-21 14:32N 50°23' W 125°47'119.6
2019-Apr-21 14:30N 50°22' W 125°46'1217.4
2019-Apr-21 13:48N 50°20' W 125°27'415.2
2019-Apr-21 13:31N 50°16' W 125°24'816.1
2019-Apr-21 13:00N 50°09' W 125°21'510.0
2019-Apr-21 12:31N 50°05' W 125°16'4 7.3
2019-Apr-21 12:00N 50°02' W 125°13'5 9.0
2019-Apr-21 11:30N 49°58' W 125°09'612.2
2019-Apr-21 10:59N 49°54' W 125°02'612.8
2019-Apr-21 10:30N 49°49' W 124°56'612.4
2019-Apr-21 10:00N 49°45' W 124°49'612.4
2019-Apr-21 09:30N 49°40' W 124°42'612.5
2019-Apr-21 09:00N 49°36' W 124°35'712.8
2019-Apr-21 08:29N 49°31' W 124°28'613.4
2019-Apr-21 08:00N 49°27' W 124°21'713.2
2019-Apr-21 07:30N 49°24' W 124°11'713.1
2019-Apr-21 07:01N 49°23' W 124°02'713.2
2019-Apr-21 06:30N 49°21' W 123°52'612.8
2019-Apr-21 06:01N 49°18' W 123°43'713.0
2019-Apr-21 05:30N 49°13' W 123°36'612.7
2019-Apr-21 05:00N 49°09' W 123°29'612.7
2019-Apr-21 04:30N 49°05' W 123°22'613.0
2019-Apr-21 04:01N 49°01' W 123°15'713.4
2019-Apr-21 03:31N 48°56' W 123°07'713.9
2019-Apr-21 03:00N 48°52' W 122°59'714.5
2019-Apr-21 02:30N 48°47' W 122°50'815.5
2019-Apr-21 02:00N 48°41' W 122°43'611.8
2019-Apr-21 01:29N 48°40' W 122°34'4 8.7
2019-Apr-21 01:01N 48°43' W 122°31'0 0.0
2019-Apr-21 00:25N 48°43' W 122°31'0 0.0
2019-Apr-20 23:55N 48°43' W 122°31'0 0.0
2019-Apr-20 23:25N 48°43' W 122°31'0 0.0
2019-Apr-20 22:55N 48°43' W 122°31'0 0.0
2019-Apr-20 22:25N 48°43' W 122°31'0 0.0
2019-Apr-20 21:55N 48°43' W 122°31'0 0.0
2019-Apr-20 21:25N 48°43' W 122°31'0 0.0
2019-Apr-20 20:55N 48°43' W 122°31'0 0.0
2019-Apr-20 20:25N 48°43' W 122°31'0 0.0
2019-Apr-20 19:55N 48°43' W 122°31'0 0.0
2019-Apr-20 19:25N 48°43' W 122°31'0 0.0
2019-Apr-20 18:55N 48°43' W 122°31'0 0.0
2019-Apr-20 18:25N 48°43' W 122°31'0 0.0
2019-Apr-20 17:55N 48°43' W 122°31'0 0.0
2019-Apr-20 17:25N 48°43' W 122°31'0 0.0
2019-Apr-20 16:55N 48°43' W 122°31'0 0.0
2019-Apr-20 16:25N 48°43' W 122°31'0 0.0
2019-Apr-20 15:55N 48°43' W 122°31'0 0.0
2019-Apr-20 15:25N 48°43' W 122°31'0 0.0
2019-Apr-20 14:55N 48°43' W 122°31'1 1.5
2019-Apr-20 14:19N 48°43' W 122°32'1 1.5
2019-Apr-20 13:58N 48°43' W 122°33'1 1.4
2019-Apr-20 13:30N 48°43' W 122°32'1 1.1
2019-Apr-20 13:00N 48°44' W 122°31'5 9.3
2019-Apr-20 12:30N 48°39' W 122°34'510.5
2019-Apr-20 12:00N 48°39' W 122°41'713.0
2019-Apr-20 11:30N 48°45' W 122°47'713.6
2019-Apr-20 11:00N 48°48' W 122°56'713.7
2019-Apr-20 10:30N 48°52' W 123°05'713.3
2019-Apr-20 10:01N 48°56' W 123°12'713.4
2019-Apr-20 09:30N 49°01' W 123°20'713.7
2019-Apr-20 09:00N 49°05' W 123°27'713.8
2019-Apr-20 08:30N 49°10' W 123°35'713.5
2019-Apr-20 08:00N 49°16' W 123°41'713.9
2019-Apr-20 07:31N 49°21' W 123°48'714.4
2019-Apr-20 07:01N 49°23' W 123°59'815.6
2019-Apr-20 06:31N 49°29' W 124°08'815.7
2019-Apr-20 06:00N 49°33' W 124°18'714.6
2019-Apr-20 05:31N 49°35' W 124°28'714.8
2019-Apr-20 05:01N 49°38' W 124°39'714.7
2019-Apr-20 04:30N 49°44' W 124°47'815.2
2019-Apr-20 04:00N 49°49' W 124°55'715.0
2019-Apr-20 03:30N 49°54' W 125°04'714.1
2019-Apr-20 03:01N 49°59' W 125°11'510.0
2019-Apr-20 02:30N 50°04' W 125°15'510.7
2019-Apr-20 02:00N 50°07' W 125°21'612.0
2019-Apr-20 01:30N 50°13' W 125°23'4 8.0
2019-Apr-20 01:00N 50°17' W 125°25'714.7
2019-Apr-20 00:30N 50°22' W 125°34'816.4
2019-Apr-19 23:59N 50°22' W 125°47'1516.9
2019-Apr-19 23:05N 50°28' W 126°09'216.7
2019-Apr-19 22:57N 50°29' W 126°12'816.8
2019-Apr-19 22:29N 50°30' W 126°24'816.5
2019-Apr-19 22:00N 50°31' W 126°37'815.6
2019-Apr-19 21:29N 50°37' W 126°45'917.9
2019-Apr-19 20:58N 50°43' W 126°57'817.3
2019-Apr-19 20:30N 50°48' W 127°06'917.1
2019-Apr-19 20:00N 50°52' W 127°18'917.6
2019-Apr-19 19:30N 50°57' W 127°29'816.0
2019-Apr-19 19:00N 51°03' W 127°39'816.2
2019-Apr-19 18:30N 51°08' W 127°48'816.2
2019-Apr-19 18:01N 51°16' W 127°53'815.7
2019-Apr-19 17:30N 51°23' W 127°58'816.2
2019-Apr-19 17:00N 51°27' W 128°09'815.6
2019-Apr-19 16:30N 51°34' W 128°17'815.8
2019-Apr-19 16:00N 51°40' W 128°24'815.9
2019-Apr-19 15:30N 51°47' W 128°31'815.3
2019-Apr-19 15:00N 51°54' W 128°36'815.4
2019-Apr-19 14:30N 52°01' W 128°40'815.6
2019-Apr-19 14:00N 52°09' W 128°43'815.7
2019-Apr-19 13:30N 52°16' W 128°47'8115.7
2019-Apr-19 08:22N 53°26' W 129°55'915.4
2019-Apr-19 07:48N 53°31' W 130°06'715.1
2019-Apr-19 07:21N 53°35' W 130°16'515.2
2019-Apr-19 07:00N 53°38' W 130°23'815.5
2019-Apr-19 06:30N 53°43' W 130°33'814.9
2019-Apr-19 06:00N 53°48' W 130°42'714.7
2019-Apr-19 05:30N 53°53' W 130°52'714.7
2019-Apr-19 05:00N 53°59' W 130°58'815.9
2019-Apr-19 04:30N 54°07' W 131°00'815.6
2019-Apr-19 04:00N 54°15' W 131°02'815.4
2019-Apr-19 03:30N 54°23' W 131°03'815.6
2019-Apr-19 02:59N 54°31' W 131°02'1115.5
2019-Apr-19 02:17N 54°42' W 131°01'516.1
2019-Apr-19 01:58N 54°47' W 131°03'251 7.7
2019-Apr-17 17:23N 58°13' W 135°21'717.0
2019-Apr-17 17:00N 58°15' W 135°32'917.8
2019-Apr-17 16:31N 58°18' W 135°48'1019.0
2019-Apr-17 16:00N 58°20' W 136°06'917.7
2019-Apr-17 15:30N 58°17' W 136°22'  

Dump ship's entire track history